createdAt,value
2023-04-16T00:00:54.384Z,7.41
2023-04-16T00:03:57.901Z,7.43
2023-04-16T00:07:02.281Z,7.49
2023-04-16T00:10:06.861Z,7.53
2023-04-16T00:13:10.153Z,7.58
2023-04-16T00:16:14.022Z,7.66
2023-04-16T00:19:18.035Z,7.68
2023-04-16T00:22:21.561Z,7.74
2023-04-16T00:25:25.531Z,7.80
2023-04-16T00:28:29.343Z,7.90
2023-04-16T00:31:34.482Z,7.97
2023-04-16T00:34:39.396Z,8.02
2023-04-16T00:37:43.412Z,8.13
2023-04-16T00:40:47.104Z,8.19
2023-04-16T00:43:52.395Z,8.36
2023-04-16T00:46:57.813Z,8.39
2023-04-16T00:50:02.331Z,8.38
2023-04-16T00:53:06.311Z,8.44
2023-04-16T00:56:11.664Z,8.46
2023-04-16T00:59:15.637Z,8.54
2023-04-16T01:02:19.707Z,8.63
2023-04-16T01:05:27.000Z,8.72
2023-04-16T01:08:31.126Z,8.80
2023-04-16T01:11:34.642Z,8.91
2023-04-16T01:14:38.412Z,8.96
2023-04-16T01:17:42.157Z,9.02
2023-04-16T01:20:47.398Z,9.23
2023-04-16T01:23:51.138Z,9.28
2023-04-16T01:26:55.267Z,9.39
2023-04-16T01:29:59.428Z,9.42
2023-04-16T01:33:15.722Z,9.43
2023-04-16T01:36:19.528Z,9.37
2023-04-16T01:39:23.303Z,9.37
2023-04-16T01:42:26.794Z,9.38
2023-04-16T01:45:32.511Z,9.47
2023-04-16T01:48:36.409Z,9.56
2023-04-16T01:51:40.268Z,9.51
2023-04-16T01:54:43.931Z,9.55
2023-04-16T01:57:48.209Z,9.59
2023-04-16T02:00:52.201Z,9.59
2023-04-16T02:03:56.537Z,9.49
2023-04-16T02:07:00.202Z,9.47
2023-04-16T02:10:05.698Z,9.43
2023-04-16T02:13:10.682Z,9.40
2023-04-16T02:16:14.450Z,9.48
2023-04-16T02:19:23.681Z,9.59
2023-04-16T02:22:28.579Z,9.68
2023-04-16T02:25:33.525Z,9.78
2023-04-16T02:28:38.405Z,9.94
2023-04-16T02:31:44.980Z,9.94
2023-04-16T02:34:49.980Z,10.06
2023-04-16T02:37:53.669Z,9.99
2023-04-16T02:40:58.241Z,10.02
2023-04-16T02:44:01.920Z,9.93
2023-04-16T02:47:06.084Z,9.75
2023-04-16T02:50:09.682Z,9.68
2023-04-16T02:53:13.800Z,9.74
2023-04-16T02:56:17.243Z,9.64
2023-04-16T02:59:20.926Z,9.63
2023-04-16T03:02:24.616Z,9.80
2023-04-16T03:05:28.762Z,9.73
2023-04-16T03:08:32.545Z,9.63
2023-04-16T03:11:36.792Z,9.67
2023-04-16T03:14:41.067Z,9.57
2023-04-16T03:17:45.272Z,9.48
2023-04-16T03:20:53.114Z,9.49
2023-04-16T03:23:57.010Z,9.44
2023-04-16T03:27:00.548Z,9.28
2023-04-16T03:30:05.873Z,9.26
2023-04-16T03:33:11.349Z,9.24
2023-04-16T03:36:17.027Z,9.17
2023-04-16T03:39:21.232Z,9.01
2023-04-16T03:42:24.827Z,9.03
2023-04-16T03:45:28.468Z,9.03
2023-04-16T03:48:33.649Z,8.74
2023-04-16T03:51:37.396Z,8.85
2023-04-16T03:54:41.404Z,8.65
2023-04-16T03:58:03.707Z,8.54
2023-04-16T04:01:08.870Z,8.55
2023-04-16T04:04:13.379Z,8.46
2023-04-16T04:10:46.394Z,8.83
2023-04-16T04:13:51.512Z,8.48
2023-04-16T04:16:55.233Z,8.62
2023-04-16T04:20:01.279Z,8.62
2023-04-16T04:23:06.671Z,8.08
2023-04-16T04:26:10.440Z,7.68
2023-04-16T04:29:14.700Z,7.20
2023-04-16T04:32:17.664Z,6.76
2023-04-16T04:35:22.139Z,6.53
2023-04-16T04:38:26.902Z,6.34
2023-04-16T04:41:30.140Z,6.25
2023-04-16T04:44:33.553Z,6.51
2023-04-16T04:47:37.385Z,6.79
2023-04-16T04:50:42.014Z,7.02
2023-04-16T04:53:45.666Z,7.12
2023-04-16T04:56:49.009Z,6.96
2023-04-16T04:59:52.894Z,7.17
2023-04-16T05:02:57.372Z,7.35
2023-04-16T05:06:01.165Z,7.43
2023-04-16T05:09:04.359Z,7.38
2023-04-16T05:12:07.314Z,7.40
2023-04-16T05:15:11.134Z,8.21
2023-04-16T05:18:15.040Z,9.15
2023-04-16T05:21:19.109Z,9.07
2023-04-16T05:24:23.823Z,9.10
2023-04-16T05:27:26.922Z,9.14
2023-04-16T05:30:30.013Z,9.08
2023-04-16T05:33:34.151Z,8.72
2023-04-16T05:36:37.168Z,8.46
2023-04-16T05:39:40.435Z,8.58
2023-04-16T05:42:43.423Z,8.98
2023-04-16T05:45:47.094Z,9.28
2023-04-16T05:48:50.848Z,9.71
2023-04-16T05:51:54.087Z,9.85
2023-04-16T05:54:56.994Z,9.79
2023-04-16T05:58:01.845Z,9.67
2023-04-16T06:01:08.010Z,9.51
2023-04-16T06:04:11.969Z,9.34
2023-04-16T06:07:15.871Z,9.67
2023-04-16T06:10:19.568Z,10.02
2023-04-16T06:13:23.419Z,10.22
2023-04-16T06:16:26.944Z,10.28
2023-04-16T06:19:29.962Z,10.10
2023-04-16T06:22:32.952Z,10.21
2023-04-16T06:25:36.476Z,10.60
2023-04-16T06:28:40.166Z,10.61
2023-04-16T06:31:45.444Z,11.41
2023-04-16T06:34:48.722Z,11.69
2023-04-16T06:37:51.760Z,11.53
2023-04-16T06:40:55.534Z,11.13
2023-04-16T06:43:58.804Z,10.86
2023-04-16T06:47:02.993Z,10.98
2023-04-16T06:50:07.392Z,11.16
2023-04-16T06:53:11.679Z,11.18
2023-04-16T06:56:15.593Z,10.99
2023-04-16T06:59:20.075Z,10.76
2023-04-16T07:02:24.659Z,10.77
2023-04-16T07:05:28.777Z,10.79
2023-04-16T07:08:32.347Z,10.94
2023-04-16T07:11:36.726Z,10.82
2023-04-16T07:14:41.018Z,10.42
2023-04-16T07:17:44.375Z,10.24
2023-04-16T07:20:48.744Z,10.11
2023-04-16T07:23:52.474Z,10.18
2023-04-16T07:26:56.510Z,10.11
2023-04-16T07:29:59.985Z,9.92
2023-04-16T07:33:07.055Z,9.80
2023-04-16T07:36:11.234Z,9.50
2023-04-16T07:39:14.934Z,9.35
2023-04-16T07:42:18.026Z,9.27
2023-04-16T07:45:21.572Z,9.32
2023-04-16T07:48:25.535Z,9.41
2023-04-16T07:51:29.196Z,9.65
2023-04-16T07:54:32.917Z,9.96
2023-04-16T07:57:37.362Z,10.21
2023-04-16T08:00:41.451Z,10.22
2023-04-16T08:03:44.525Z,10.12
2023-04-16T08:06:48.606Z,10.16
2023-04-16T08:09:53.242Z,10.28
2023-04-16T08:12:56.920Z,10.28
2023-04-16T08:16:00.631Z,10.25
2023-04-16T08:19:04.256Z,10.23
2023-04-16T08:22:08.338Z,10.05
2023-04-16T08:25:11.986Z,9.97
2023-04-16T08:28:16.582Z,9.90
2023-04-16T08:31:20.321Z,9.70
2023-04-16T08:34:24.308Z,9.61
2023-04-16T08:37:27.815Z,9.42
2023-04-16T08:40:33.442Z,9.50
2023-04-16T08:43:39.920Z,9.49
2023-04-16T08:46:45.085Z,9.34
2023-04-16T08:49:48.942Z,9.40
2023-04-16T08:52:55.120Z,9.35
2023-04-16T08:56:04.021Z,9.22
2023-04-16T08:59:08.251Z,9.14
2023-04-16T09:02:13.760Z,9.13
2023-04-16T09:05:18.526Z,9.13
2023-04-16T09:08:22.291Z,9.17
2023-04-16T09:11:27.242Z,9.22
2023-04-16T09:14:31.551Z,9.20
2023-04-16T09:17:36.614Z,9.03
2023-04-16T09:20:40.722Z,9.04
2023-04-16T09:23:45.052Z,9.06
2023-04-16T09:26:49.471Z,9.07
2023-04-16T09:29:53.610Z,9.00
2023-04-16T09:33:23.667Z,8.94
2023-04-16T09:36:28.822Z,8.89
2023-04-16T09:39:32.130Z,8.89
2023-04-16T09:42:37.994Z,8.72
2023-04-16T09:45:51.614Z,8.72
2023-04-16T09:48:55.585Z,8.83
2023-04-16T09:52:00.552Z,8.89
2023-04-16T09:55:04.787Z,8.87
2023-04-16T09:58:08.555Z,8.90
2023-04-16T10:01:13.910Z,8.90
2023-04-16T10:04:17.941Z,8.85
2023-04-16T10:07:22.325Z,9.22
2023-04-16T10:10:26.965Z,9.44
2023-04-16T10:13:32.136Z,9.05
2023-04-16T10:16:36.199Z,8.80
2023-04-16T10:19:40.756Z,8.79
2023-04-16T10:22:44.383Z,8.70
2023-04-16T10:25:53.807Z,8.63
2023-04-16T10:29:00.069Z,8.55
2023-04-16T10:32:03.924Z,8.55
2023-04-16T10:35:07.912Z,8.46
2023-04-16T10:38:28.899Z,8.38
2023-04-16T10:41:34.311Z,8.21
2023-04-16T10:44:38.482Z,8.06
2023-04-16T10:47:43.764Z,7.79
2023-04-16T10:50:58.445Z,7.56
2023-04-16T10:54:20.071Z,7.36
2023-04-16T10:57:23.653Z,7.20
2023-04-16T11:00:26.736Z,7.03
2023-04-16T11:03:35.647Z,6.88
2023-04-16T11:06:39.385Z,6.70
2023-04-16T11:10:03.157Z,6.64
2023-04-16T11:13:07.633Z,6.57
2023-04-16T11:16:11.911Z,6.45
2023-04-16T11:19:18.532Z,6.30
2023-04-16T11:22:22.041Z,6.12
2023-04-16T11:25:30.420Z,5.94
2023-04-16T11:28:37.668Z,5.78
2023-04-16T11:31:41.444Z,5.65
2023-04-16T11:34:46.602Z,5.65
2023-04-16T11:37:49.614Z,5.56
2023-04-16T11:40:54.623Z,5.43
2023-04-16T11:43:57.926Z,5.38
2023-04-16T11:47:08.226Z,-145.59
2023-04-16T11:50:24.518Z,-145.59
2023-04-16T11:53:28.554Z,-145.59
2023-04-16T11:56:33.753Z,-145.59
2023-04-16T11:59:38.044Z,-145.59
2023-04-16T12:03:03.574Z,-145.59
2023-04-16T12:06:10.805Z,-145.59
2023-04-16T12:09:25.783Z,-145.59
2023-04-16T12:12:32.029Z,-145.59
2023-04-16T12:15:57.367Z,-145.59
2023-04-16T12:19:05.030Z,-145.59
2023-04-16T12:22:08.663Z,-145.59
2023-04-16T12:25:18.790Z,-145.59
2023-04-16T12:28:48.616Z,-145.59
2023-04-16T12:31:54.038Z,-145.59
2023-04-16T12:34:57.392Z,-145.59
2023-04-16T12:38:02.303Z,-145.59
2023-04-16T12:41:06.920Z,-145.59
2023-04-16T12:44:13.794Z,-145.59
2023-04-16T12:47:17.705Z,-145.59
2023-04-16T12:50:21.210Z,-145.59
2023-04-16T12:53:24.802Z,-145.59
2023-04-16T12:56:28.552Z,-145.59
2023-04-16T12:59:31.432Z,-145.59
2023-04-16T13:02:35.008Z,-145.59
2023-04-16T13:05:38.024Z,-145.59
2023-04-16T13:08:46.453Z,-145.59
2023-04-16T13:11:50.081Z,-145.59
2023-04-16T13:14:54.495Z,-145.59
2023-04-16T13:17:58.370Z,-145.59
2023-04-16T13:21:01.860Z,-145.59
2023-04-16T13:24:05.675Z,-145.59
2023-04-16T13:27:09.635Z,-145.59
2023-04-16T13:30:13.676Z,-145.59
2023-04-16T13:33:17.598Z,-145.59
2023-04-16T13:36:21.644Z,-145.59
2023-04-16T13:39:24.606Z,-145.59
2023-04-16T13:42:29.005Z,-145.59
2023-04-16T13:45:32.270Z,-145.59
2023-04-16T13:48:36.117Z,-145.59
2023-04-16T13:51:39.373Z,-145.59
2023-04-16T13:54:42.519Z,-145.59
2023-04-16T13:57:57.149Z,-145.59
2023-04-16T14:01:00.581Z,-145.59
2023-04-16T14:04:07.146Z,-145.59
2023-04-16T14:07:10.173Z,-145.59
2023-04-16T14:10:13.450Z,-145.59
2023-04-16T14:13:17.319Z,-145.59
2023-04-16T14:16:20.669Z,-145.59
2023-04-16T14:19:23.542Z,-145.59
2023-04-16T14:22:27.637Z,-145.59
2023-04-16T14:25:31.537Z,-145.59
2023-04-16T14:28:35.215Z,-145.59
2023-04-16T14:31:38.981Z,-145.59
2023-04-16T14:34:42.921Z,-145.59
2023-04-16T14:37:47.392Z,-145.59
2023-04-16T14:40:51.421Z,-145.59
2023-04-16T14:43:54.962Z,-145.59
2023-04-16T14:46:59.193Z,-145.59
2023-04-16T14:50:03.989Z,-145.59
2023-04-16T14:53:07.925Z,-145.59
2023-04-16T14:56:13.415Z,-145.59
2023-04-16T14:59:17.126Z,-145.59
2023-04-16T15:02:20.650Z,-145.59
2023-04-16T15:05:24.001Z,-145.59
2023-04-16T15:08:27.676Z,-145.59
2023-04-16T15:11:30.782Z,-145.59
2023-04-16T15:14:33.687Z,-145.59
2023-04-16T15:17:37.584Z,-145.59
2023-04-16T15:20:40.628Z,-145.59
2023-04-16T15:23:44.623Z,-145.59
2023-04-16T15:26:47.620Z,-145.59
2023-04-16T15:29:51.559Z,-145.59
2023-04-16T15:32:55.794Z,-145.59
2023-04-16T15:35:59.934Z,-145.59
2023-04-16T15:39:03.738Z,-145.59
2023-04-16T15:42:08.204Z,-145.59
2023-04-16T15:45:11.604Z,-145.59
2023-04-16T15:48:15.481Z,-145.59
2023-04-16T15:51:19.247Z,-145.59
2023-04-16T15:54:22.891Z,-145.59
2023-04-16T15:57:26.761Z,-145.59
2023-04-16T16:00:30.966Z,-145.59
2023-04-16T16:03:36.615Z,-145.59
2023-04-16T16:06:40.228Z,-145.59
2023-04-16T16:09:43.644Z,-145.59
2023-04-16T16:12:47.554Z,-145.59
2023-04-16T16:15:51.674Z,-145.59
2023-04-16T16:18:55.925Z,-145.59
2023-04-16T16:21:59.602Z,-145.59
2023-04-16T16:25:04.155Z,-145.59
2023-04-16T16:28:07.902Z,-145.59
2023-04-16T16:31:13.173Z,-145.59
2023-04-16T16:34:20.749Z,-145.59
2023-04-16T16:37:24.850Z,-145.59
2023-04-16T16:40:28.212Z,-145.59
2023-04-16T16:43:32.316Z,-145.59
2023-04-16T16:46:37.262Z,-145.59
2023-04-16T16:49:41.428Z,-145.59
2023-04-16T16:52:45.223Z,-145.59
2023-04-16T16:55:48.892Z,-145.59
2023-04-16T16:58:52.596Z,-145.59
2023-04-16T17:01:56.390Z,-145.59
2023-04-16T17:05:00.008Z,-145.59
2023-04-16T17:08:03.758Z,-145.59
2023-04-16T17:11:06.713Z,-145.59
2023-04-16T17:14:10.714Z,-145.59
2023-04-16T17:17:14.753Z,-145.59
2023-04-16T17:20:18.066Z,-145.59
2023-04-16T17:23:20.964Z,-145.59
2023-04-16T17:26:24.928Z,-145.59
2023-04-16T17:29:28.635Z,-145.59
2023-04-16T17:32:33.413Z,-145.59
2023-04-16T17:35:36.762Z,-145.59
2023-04-16T17:38:41.978Z,-145.59
2023-04-16T17:41:47.282Z,-145.59
2023-04-16T17:44:51.444Z,-145.59
2023-04-16T17:47:55.205Z,-145.59
2023-04-16T17:50:59.109Z,-145.59
2023-04-16T17:54:04.000Z,-145.59
2023-04-16T17:57:07.881Z,-145.59
2023-04-16T18:00:12.941Z,-145.59
2023-04-16T18:03:17.552Z,-145.59
2023-04-16T18:06:22.441Z,-145.59
2023-04-16T18:09:27.059Z,-145.59
2023-04-16T18:12:30.938Z,-145.59
2023-04-16T18:15:40.178Z,-145.59
2023-04-16T18:18:46.618Z,-145.59
2023-04-16T18:21:50.367Z,-145.59
2023-04-16T18:24:53.310Z,-145.59
2023-04-16T18:27:57.997Z,-145.59
2023-04-16T18:31:05.867Z,-145.59
2023-04-16T18:34:09.591Z,-145.59
2023-04-16T18:37:13.241Z,-145.59
2023-04-16T18:40:17.172Z,-145.59
2023-04-16T18:43:20.781Z,-145.59
2023-04-16T18:46:24.267Z,-145.59
2023-04-16T18:49:27.387Z,-145.59
2023-04-16T18:52:31.457Z,-145.59
2023-04-16T18:55:34.977Z,-145.59
2023-04-16T18:58:39.079Z,-145.59
2023-04-16T19:01:42.008Z,-145.59
2023-04-16T19:04:46.304Z,-145.59
2023-04-16T19:07:49.744Z,-145.59
2023-04-16T19:10:53.743Z,-145.59
2023-04-16T19:13:58.146Z,-145.59
2023-04-16T19:17:02.198Z,-145.59
2023-04-16T19:20:11.088Z,-145.59
2023-04-16T19:23:16.213Z,-145.59
2023-04-16T19:26:19.469Z,-145.59
2023-04-16T19:29:23.396Z,-145.59
2023-04-16T19:32:27.190Z,-145.59
2023-04-16T19:35:31.027Z,-145.59
2023-04-16T19:38:34.745Z,-145.59
2023-04-16T19:41:38.328Z,-145.59
2023-04-16T19:44:42.359Z,-145.59
2023-04-16T19:47:46.169Z,-145.59
2023-04-16T19:50:50.212Z,-145.59
2023-04-16T19:53:54.417Z,-145.59
2023-04-16T19:56:58.492Z,-145.59
2023-04-16T20:00:02.290Z,-145.59
2023-04-16T20:03:07.281Z,-145.59
2023-04-16T20:06:10.955Z,-145.59
2023-04-16T20:09:14.637Z,-145.59
2023-04-16T20:12:19.543Z,-145.59
2023-04-16T20:15:23.287Z,-145.59
2023-04-16T20:18:28.310Z,-145.59
2023-04-16T20:21:32.516Z,-145.59
2023-04-16T20:24:39.380Z,-145.59
2023-04-16T20:27:42.986Z,-145.59
2023-04-16T20:30:46.060Z,-145.59
2023-04-16T20:33:49.708Z,-145.59
2023-04-16T20:36:55.706Z,-145.59
2023-04-16T20:39:59.446Z,-145.59
2023-04-16T20:43:03.660Z,-145.59
2023-04-16T20:46:11.497Z,-145.59
2023-04-16T20:49:18.446Z,-145.59
2023-04-16T20:52:22.323Z,-145.59
2023-04-16T20:55:26.620Z,-145.59
2023-04-16T20:58:30.692Z,-145.59
2023-04-16T21:01:34.110Z,-145.59
2023-04-16T21:04:37.678Z,-145.59
2023-04-16T21:07:42.925Z,-145.59
2023-04-16T21:10:46.970Z,-145.59
2023-04-16T21:13:50.881Z,-145.59
2023-04-16T21:16:55.370Z,-145.59
2023-04-16T21:19:59.525Z,-145.59
2023-04-16T21:23:04.402Z,-145.59
2023-04-16T21:26:08.391Z,-145.59
2023-04-16T21:29:12.581Z,-145.59
2023-04-16T21:32:16.670Z,-145.59
2023-04-16T21:35:20.660Z,-145.59
2023-04-16T21:38:24.582Z,-145.59
2023-04-16T21:41:28.593Z,-145.59
2023-04-16T21:44:32.525Z,-145.59
2023-04-16T21:47:36.672Z,-145.59
2023-04-16T21:50:40.280Z,-145.59
2023-04-16T21:53:43.267Z,-145.59
2023-04-16T21:56:47.316Z,-145.59
2023-04-16T21:59:50.458Z,-145.59
2023-04-16T22:02:56.743Z,-145.59
2023-04-16T22:06:02.001Z,-145.59
2023-04-16T22:09:06.450Z,-145.59
2023-04-16T22:12:13.384Z,-145.59
2023-04-16T22:15:17.393Z,-145.59
2023-04-16T22:18:20.868Z,-145.59
2023-04-16T22:21:25.729Z,-145.59
2023-04-16T22:24:29.476Z,-145.59
2023-04-16T22:27:34.791Z,-145.59
2023-04-16T22:30:38.540Z,-145.59
2023-04-16T22:33:42.466Z,-145.59
2023-04-16T22:36:46.085Z,-145.59
2023-04-16T22:39:50.058Z,-145.59
2023-04-16T22:42:53.641Z,-145.59
2023-04-16T22:46:08.043Z,-145.59
2023-04-16T22:49:12.111Z,-145.59
2023-04-16T22:52:16.564Z,-145.59
2023-04-16T22:55:20.336Z,-145.59
2023-04-16T22:58:24.386Z,-145.59
2023-04-16T23:01:28.059Z,-145.59
2023-04-16T23:04:33.723Z,-145.59
2023-04-16T23:07:36.989Z,-145.59
2023-04-16T23:10:41.057Z,-145.59
2023-04-16T23:13:44.849Z,-145.59
2023-04-16T23:16:48.806Z,-145.59
2023-04-16T23:19:52.568Z,-145.59
2023-04-16T23:22:56.522Z,-145.59
2023-04-16T23:26:01.552Z,-145.59
2023-04-16T23:29:06.278Z,-145.59
2023-04-16T23:32:09.843Z,-145.59
2023-04-16T23:35:13.753Z,-145.59
2023-04-16T23:38:17.649Z,-145.59
2023-04-16T23:41:24.118Z,-145.59
2023-04-16T23:44:27.117Z,-145.59
2023-04-16T23:47:30.588Z,-145.59
2023-04-16T23:50:33.529Z,-145.59
2023-04-16T23:53:37.318Z,-145.59
2023-04-16T23:56:41.014Z,-145.59
2023-04-16T23:59:44.140Z,-145.59
